KMFV

Accomack County Airport

Melfa, Virginia, USA
METAR KMFV 211555Z AUTO 31018G32KT 7SM SCT002 BKN042 BKN050 M06/M16 A3030 RMK AO2 T10611160
Observed Flight Rules
Jan-21 @ 15:55 UTC (26 minutes ago) Visual Flight Rules
Wind Visibility Clouds
310° at 18 knots
 Gusting to 32 knots
7 miles
  • Scattered at 200' AGL
  • Broken at 4,200' AGL
  • Broken at 5,000' AGL
Temperatures Readings
Current -6°C / 21°F
Dewpoint -16°C / 3°F
Humidity 45%
Altimeter 30.3" Hg
Pressure 1026.12 hPa
Elevation 15
METAR KMFV 211555Z AUTO 31018G32KT 7SM SCT002 BKN042 BKN050 M06/M16 A3030 RMK AO2 T10611160
Observed Flight Rules
Jan-21 @ 15:55 UTC
(26 minutes ago)
VFR
Wind Visibility
310° at 18 knots
 Gusting to 32 knots
7 miles
Clouds
  • Scattered at 200' AGL
  • Broken at 4,200' AGL
  • Broken at 5,000' AGL
Temperature Dewpoint
-6°C / 21°F -16°C / 3°F
Humidity Altimeter Pressure
45% 30.3" Hg 1026.12 hPa